Time;durP1;ratioP1;P1;durP2;ratioP2;P2;SDS_P1;SDS_P2;PMS_P1;PMS_P2;Temp;Humidity;BMP_temperature;BMP_pressure;BME280_temperature;BME280_humidity;BME280_pressure;Samples;Min_cycle;Max_cycle;Signal;HPM_P1;HPM_P2
2021/12/11 00:02:18;;;;;;;19.80;14.73;;;;;;;6.15;99.75;98838.00;5053600;28;20254;-63
2021/12/11 00:04:49;;;;;;;16.60;13.27;;;;;;;6.15;100.00;98841.47;5054222;28;20196;-63
2021/12/11 00:07:20;;;;;;;17.60;14.40;;;;;;;6.14;100.00;98839.00;5054072;28;20201;-62
2021/12/11 00:09:51;;;;;;;18.17;14.30;;;;;;;6.10;100.00;98837.75;5053853;28;20186;-63
2021/12/11 00:12:20;;;;;;;17.07;14.43;;;;;;;6.24;100.00;98855.38;5054126;28;20319;-62
2021/12/11 00:14:54;;;;;;;19.93;14.60;;;;;;;6.39;100.00;98854.34;5053375;28;20734;-62
2021/12/11 00:17:24;;;;;;;19.80;14.70;;;;;;;6.51;100.00;98867.88;5053382;28;20225;-63
2021/12/11 00:19:50;;;;;;;16.77;14.27;;;;;;;6.60;99.15;98872.03;5053524;28;20193;-63
2021/12/11 00:22:21;;;;;;;17.50;14.93;;;;;;;6.62;98.46;98881.38;5053520;28;20262;-63
2021/12/11 00:24:50;;;;;;;14.90;12.13;;;;;;;6.69;99.72;98887.56;5053185;28;20193;-63
2021/12/11 00:27:21;;;;;;;17.23;14.03;;;;;;;6.76;99.36;98895.53;5053103;28;20251;-63
2021/12/11 00:29:49;;;;;;;16.63;13.67;;;;;;;6.81;99.28;98901.91;5053987;28;20185;-62
2021/12/11 00:32:23;;;;;;;16.60;14.43;;;;;;;6.80;97.82;98910.00;5053313;28;20197;-62
2021/12/11 00:34:52;;;;;;;20.53;15.27;;;;;;;6.78;96.99;98912.81;5053570;28;20657;-62
2021/12/11 00:37:22;;;;;;;23.00;15.47;;;;;;;6.81;97.14;98906.38;5053240;28;20197;-62
2021/12/11 00:39:53;;;;;;;19.13;13.63;;;;;;;6.81;96.28;98912.47;5053425;28;20271;-62
2021/12/11 00:42:23;;;;;;;22.00;13.93;;;;;;;6.75;94.94;98907.13;5052899;28;20235;-63
2021/12/11 00:44:54;;;;;;;15.63;12.23;;;;;;;6.42;97.94;98890.91;5053103;28;20306;-62
2021/12/11 00:47:23;;;;;;;14.60;12.30;;;;;;;6.52;98.89;98888.78;5052768;28;20238;-62
2021/12/11 00:49:54;;;;;;;17.57;13.00;;;;;;;6.61;98.61;98884.22;5052683;28;20223;-63
2021/12/11 00:52:31;;;;;;;21.27;13.97;;;;;;;6.71;97.68;98895.28;5053554;28;20196;-63
2021/12/11 00:54:59;;;;;;;19.70;13.73;;;;;;;6.64;97.47;98884.66;5052612;28;20196;-63
2021/12/11 00:57:26;;;;;;;21.73;14.50;;;;;;;6.57;98.11;98873.22;5069439;28;20195;-63
2021/12/11 01:00:02;;;;;;;25.07;16.43;;;;;;;6.53;98.91;98876.44;5073328;28;20199;-62
2021/12/11 01:02:29;;;;;;;23.97;15.60;;;;;;;6.60;98.93;98872.84;5072469;28;20196;-63
2021/12/11 01:04:56;;;;;;;21.00;15.40;;;;;;;6.68;97.97;98879.81;5072800;28;20200;-63
2021/12/11 01:07:26;;;;;;;24.10;15.33;;;;;;;6.72;98.32;98881.09;5071952;28;20253;-63
2021/12/11 01:09:56;;;;;;;19.27;13.43;;;;;;;6.77;97.76;98865.53;5073188;28;20211;-63
2021/12/11 01:12:36;;;;;;;20.17;14.57;;;;;;;6.80;97.83;98868.59;5072378;28;20625;-63
2021/12/11 01:15:10;;;;;;;20.67;14.77;;;;;;;6.70;97.92;98864.63;5073089;28;20531;-63
2021/12/11 01:17:44;;;;;;;18.93;13.93;;;;;;;6.70;97.49;98868.06;5072437;28;20193;-63
2021/12/11 01:20:16;;;;;;;19.57;13.57;;;;;;;6.60;97.88;98877.28;5072463;28;20651;-62
2021/12/11 01:22:43;;;;;;;19.60;13.97;;;;;;;6.69;98.08;98876.19;5073075;28;20241;-62
2021/12/11 01:25:19;;;;;;;15.23;13.43;;;;;;;6.77;97.89;98873.44;5072134;28;20211;-63
2021/12/11 01:27:50;;;;;;;17.20;13.90;;;;;;;6.80;98.12;98878.34;5072932;28;20332;-63
2021/12/11 01:30:20;;;;;;;17.80;14.57;;;;;;;6.85;97.27;98868.03;5072418;28;20189;-62
2021/12/11 01:32:47;;;;;;;21.90;16.83;;;;;;;6.94;97.21;98874.84;5072061;28;20189;-63
2021/12/11 01:35:17;;;;;;;20.13;16.77;;;;;;;6.98;97.11;98882.19;5072656;28;20208;-63
2021/12/11 01:37:44;;;;;;;15.87;14.00;;;;;;;6.92;96.04;98882.94;5072827;28;20192;-63
2021/12/11 01:40:14;;;;;;;15.83;14.17;;;;;;;6.92;96.27;98871.56;5072283;28;20196;-63
2021/12/11 01:42:42;;;;;;;18.37;14.37;;;;;;;6.93;96.44;98875.81;5071984;28;20184;-62
2021/12/11 01:45:14;;;;;;;16.40;12.97;;;;;;;6.93;97.17;98858.19;5071797;28;20231;-63
2021/12/11 01:47:44;;;;;;;14.33;12.10;;;;;;;6.96;97.05;98856.97;5073038;28;20183;-62
2021/12/11 01:50:16;;;;;;;15.80;13.13;;;;;;;6.88;96.37;98854.47;5072556;28;20180;-62
2021/12/11 01:52:47;;;;;;;14.53;13.03;;;;;;;6.97;95.98;98863.88;5072468;28;20234;-62
2021/12/11 01:55:23;;;;;;;16.17;13.93;;;;;;;6.99;96.10;98861.88;5072450;28;20191;-62
2021/12/11 01:57:52;;;;;;;17.50;13.87;;;;;;;7.04;95.88;98865.59;5072112;28;20191;-62
2021/12/11 02:00:25;;;;;;;14.87;12.57;;;;;;;7.02;95.55;98862.31;5072102;28;20223;-62
2021/12/11 02:02:55;;;;;;;16.17;12.57;;;;;;;6.98;95.51;98865.53;5072114;28;20187;-62
2021/12/11 02:05:26;;;;;;;14.47;13.03;;;;;;;6.95;95.34;98860.63;5072575;28;20246;-62
2021/12/11 02:07:56;;;;;;;14.80;12.97;;;;;;;6.96;95.00;98867.53;5072493;28;20521;-62
2021/12/11 02:10:26;;;;;;;13.90;12.50;;;;;;;6.94;94.69;98849.25;5072546;28;20188;-62
2021/12/11 02:12:54;;;;;;;14.57;13.13;;;;;;;7.04;94.80;98854.22;5072770;28;20268;-62
2021/12/11 02:15:33;;;;;;;15.97;14.10;;;;;;;6.97;94.66;98854.16;5072406;28;20552;-62
2021/12/11 02:18:09;;;;;;;14.00;12.60;;;;;;;6.96;94.46;98862.25;5071933;28;20724;-62
2021/12/11 02:20:41;;;;;;;14.77;12.90;;;;;;;6.93;94.62;98871.38;5076772;28;20624;-62
2021/12/11 02:23:09;;;;;;;17.20;14.13;;;;;;;6.89;94.15;98864.00;5075556;28;20238;-62
2021/12/11 02:25:40;;;;;;;16.43;13.50;;;;;;;6.69;94.27;98861.16;5076023;28;20197;-63
2021/12/11 02:28:10;;;;;;;14.97;13.37;;;;;;;6.68;95.01;98870.09;5076466;28;20189;-62
2021/12/11 02:30:40;;;;;;;15.50;13.37;;;;;;;6.58;95.40;98871.41;5075689;28;20191;-63
2021/12/11 02:33:15;;;;;;;15.27;13.67;;;;;;;6.55;95.50;98869.13;5075333;28;20789;-62
2021/12/11 02:35:47;;;;;;;16.67;13.33;;;;;;;6.31;96.24;98861.53;5075307;28;20191;-63
2021/12/11 02:38:19;;;;;;;17.40;14.30;;;;;;;6.37;96.80;98860.81;5075828;28;20243;-62
2021/12/11 02:40:51;;;;;;;15.00;13.20;;;;;;;6.31;96.25;98872.91;5075762;28;20195;-62
2021/12/11 02:43:24;;;;;;;18.17;13.70;;;;;;;6.27;96.87;98849.72;5076024;28;20186;-63
2021/12/11 02:45:56;;;;;;;16.00;12.20;;;;;;;6.25;96.26;98857.00;5075510;28;20237;-63
2021/12/11 02:48:27;;;;;;;15.03;13.17;;;;;;;6.30;96.70;98857.25;5075566;28;20261;-63
2021/12/11 02:51:06;;;;;;;12.20;10.93;;;;;;;6.29;96.84;98866.19;5075373;28;20239;-62
2021/12/11 02:53:41;;;;;;;13.50;11.20;;;;;;;6.33;96.84;98859.53;5075248;28;20245;-63
2021/12/11 02:56:14;;;;;;;14.37;11.87;;;;;;;6.25;96.40;98857.00;5075513;28;20246;-62
2021/12/11 02:58:44;;;;;;;12.80;11.50;;;;;;;6.21;95.96;98866.28;5075634;28;20249;-62
2021/12/11 03:01:21;;;;;;;14.33;12.07;;;;;;;6.19;95.79;98868.28;5075120;28;20190;-62
2021/12/11 03:03:57;;;;;;;14.67;12.00;;;;;;;6.11;96.55;98865.72;5075645;28;20215;-62
2021/12/11 03:06:26;;;;;;;14.43;12.37;;;;;;;5.99;96.59;98861.91;5074762;28;20185;-63
2021/12/11 03:08:59;;;;;;;14.77;12.20;;;;;;;5.95;96.52;98865.94;5074584;28;20277;-62
2021/12/11 03:11:29;;;;;;;13.47;12.07;;;;;;;5.98;96.94;98865.56;5074667;28;20206;-62
2021/12/11 03:13:56;;;;;;;12.83;10.70;;;;;;;6.01;97.03;98867.84;5075150;28;20245;-62
2021/12/11 03:16:25;;;;;;;11.90;10.77;;;;;;;5.94;95.91;98859.03;5074504;28;20250;-62
2021/12/11 03:18:53;;;;;;;16.60;11.77;;;;;;;5.87;96.70;98837.06;5074738;28;20192;-63
2021/12/11 03:21:21;;;;;;;18.50;13.00;;;;;;;5.69;97.16;98819.72;5074711;28;20191;-62
2021/12/11 03:23:48;;;;;;;21.23;15.13;;;;;;;5.70;97.49;98831.09;5075237;28;20187;-62
2021/12/11 03:26:17;;;;;;;25.03;16.47;;;;;;;5.69;97.49;98832.91;5075177;28;20241;-62
2021/12/11 03:28:44;;;;;;;27.80;17.27;;;;;;;5.57;97.27;98842.25;5074180;28;20276;-62
2021/12/11 03:31:11;;;;;;;29.90;17.90;;;;;;;5.45;97.33;98841.06;5074139;28;20663;-63
2021/12/11 03:33:42;;;;;;;28.33;16.90;;;;;;;5.43;97.99;98829.88;5075044;28;20222;-62
2021/12/11 03:36:14;;;;;;;24.93;18.20;;;;;;;5.40;98.27;98830.25;5074519;28;20246;-62
2021/12/11 03:38:44;;;;;;;32.90;19.23;;;;;;;5.24;97.62;98838.28;5074396;28;20188;-62
2021/12/11 03:41:11;;;;;;;26.77;19.10;;;;;;;5.09;97.46;98826.94;5074093;28;20664;-62
2021/12/11 03:43:40;;;;;;;30.50;20.33;;;;;;;5.01;97.79;98819.09;5073988;28;20195;-61
2021/12/11 03:46:09;;;;;;;28.40;17.87;;;;;;;4.94;97.81;98833.13;5074191;28;20223;-62
2021/12/11 03:48:40;;;;;;;32.17;19.83;;;;;;;4.73;98.64;98836.41;5074122;28;20188;-62
2021/12/11 03:51:10;;;;;;;30.80;19.73;;;;;;;4.70;100.00;98862.25;5074191;28;20234;-62
2021/12/11 03:53:37;;;;;;;28.90;20.40;;;;;;;4.73;100.00;98862.72;5073807;28;20218;-63
2021/12/11 03:56:06;;;;;;;30.97;19.97;;;;;;;4.72;100.00;98868.97;5073746;28;20199;-63
2021/12/11 03:58:34;;;;;;;31.13;20.00;;;;;;;4.80;100.00;98874.19;5074017;28;20191;-62
2021/12/11 04:01:08;;;;;;;31.90;19.97;;;;;;;4.87;100.00;98861.94;5073598;28;20195;-62
2021/12/11 04:03:39;;;;;;;27.57;19.80;;;;;;;4.94;100.00;98860.25;5074495;28;20239;-63
2021/12/11 04:06:09;;;;;;;29.87;19.97;;;;;;;5.01;99.86;98877.00;5073801;28;20196;-63
2021/12/11 04:08:40;;;;;;;34.13;21.30;;;;;;;5.07;99.56;98881.53;5073723;28;20192;-63
2021/12/11 04:11:09;;;;;;;32.27;20.93;;;;;;;5.05;98.84;98888.81;5073512;28;20180;-63
2021/12/11 04:13:37;;;;;;;28.77;19.80;;;;;;;5.02;98.84;98878.63;5073716;28;20196;-62
2021/12/11 04:16:07;;;;;;;30.67;20.30;;;;;;;4.97;98.59;98877.50;5074213;28;20191;-63
2021/12/11 04:18:34;;;;;;;31.67;21.03;;;;;;;4.98;98.80;98874.69;5073362;28;20648;-62
2021/12/11 04:21:01;;;;;;;34.00;21.03;;;;;;;4.96;98.49;98871.44;5073190;28;20663;-62
2021/12/11 04:23:28;;;;;;;35.87;21.10;;;;;;;4.88;98.29;98849.63;5073220;28;20221;-62
2021/12/11 04:25:57;;;;;;;37.20;21.57;;;;;;;4.86;98.98;98841.91;5073446;28;20254;-62
2021/12/11 04:28:25;;;;;;;39.53;22.67;;;;;;;4.87;99.78;98833.00;5074173;28;20192;-62
2021/12/11 04:31:01;;;;;;;36.17;22.07;;;;;;;4.90;100.00;98853.72;5072867;28;20215;-62
2021/12/11 04:33:30;;;;;;;32.60;20.93;;;;;;;4.73;100.00;98857.44;5073584;28;20198;-62
2021/12/11 04:35:57;;;;;;;29.47;20.63;;;;;;;4.65;99.62;98859.31;5073196;28;20627;-62
2021/12/11 04:38:24;;;;;;;33.27;20.90;;;;;;;4.57;99.60;98841.78;5072822;28;20195;-62
2021/12/11 04:40:55;;;;;;;32.87;21.57;;;;;;;4.53;100.00;98837.84;5072671;28;20257;-62
2021/12/11 04:43:25;;;;;;;30.20;21.57;;;;;;;4.56;100.00;98840.16;5072820;28;20644;-61
2021/12/11 04:45:54;;;;;;;35.27;21.30;;;;;;;4.47;100.00;98830.69;5073374;28;20227;-62
2021/12/11 04:48:33;;;;;;;29.50;19.60;;;;;;;4.50;100.00;98825.03;5073262;28;20200;-62
2021/12/11 04:51:11;;;;;;;29.17;19.77;;;;;;;4.59;100.00;98808.25;5072617;28;20239;-62
2021/12/11 04:53:51;;;;;;;29.23;19.37;;;;;;;4.51;100.00;98789.91;5073815;28;20184;-62
2021/12/11 04:56:42;;;;;;;23.30;17.87;;;;;;;4.57;100.00;98797.06;5072674;28;20659;-62
2021/12/11 04:59:27;;;;;;;24.20;18.33;;;;;;;4.67;100.00;98810.81;5073038;28;20188;-62
2021/12/11 05:02:09;;;;;;;27.23;18.77;;;;;;;4.66;100.00;98803.91;5073628;28;20550;-63
2021/12/11 05:04:48;;;;;;;31.60;20.20;;;;;;;4.65;100.00;98802.28;5073068;28;20216;-63
2021/12/11 05:07:27;;;;;;;38.93;24.77;;;;;;;4.70;100.00;98823.59;5073206;28;20184;-63
2021/12/11 05:10:01;;;;;;;31.43;22.37;;;;;;;4.63;100.00;98820.06;5072339;28;20204;-63
2021/12/11 05:12:34;;;;;;;32.13;21.63;;;;;;;4.71;100.00;98816.53;5072032;28;20270;-64
2021/12/11 05:15:06;;;;;;;33.37;22.70;;;;;;;4.70;100.00;98820.97;5072526;28;20292;-63
2021/12/11 05:17:33;;;;;;;30.00;22.33;;;;;;;4.61;100.00;98789.63;5072878;28;20188;-63
2021/12/11 05:20:00;;;;;;;32.50;22.73;;;;;;;4.68;100.00;98785.31;5072498;28;20200;-63
2021/12/11 05:22:28;;;;;;;38.37;24.80;;;;;;;4.71;100.00;98777.88;5072182;28;20192;-62
2021/12/11 05:24:57;;;;;;;113.17;52.83;;;;;;;4.70;100.00;98794.66;5072165;28;20191;-62
2021/12/11 05:27:24;;;;;;;46.07;29.57;;;;;;;4.59;100.00;98789.84;5072665;28;20188;-62
2021/12/11 05:29:51;;;;;;;44.13;26.97;;;;;;;4.59;100.00;98775.88;5072328;28;20281;-62
2021/12/11 05:32:21;;;;;;;33.10;23.30;;;;;;;4.67;100.00;98784.53;5072076;28;20691;-62
2021/12/11 05:34:48;;;;;;;34.50;23.93;;;;;;;4.76;100.00;98793.97;5072410;28;20196;-62
2021/12/11 05:37:15;;;;;;;35.83;23.37;;;;;;;4.61;100.00;98789.63;5072269;28;20253;-62
2021/12/11 05:39:43;;;;;;;32.20;22.10;;;;;;;4.63;100.00;98793.75;5071970;28;20691;-62
2021/12/11 05:42:10;;;;;;;32.73;23.33;;;;;;;4.73;100.00;98801.38;5072815;28;20222;-62
2021/12/11 05:44:37;;;;;;;31.60;21.67;;;;;;;4.66;100.00;98803.91;5071719;28;20679;-63
2021/12/11 05:47:05;;;;;;;35.80;26.13;;;;;;;4.60;100.00;98798.53;5072411;28;20184;-63
2021/12/11 05:49:34;;;;;;;31.43;22.47;;;;;;;4.58;100.00;98795.28;5071783;28;20277;-62
2021/12/11 05:52:02;;;;;;;32.30;22.80;;;;;;;4.41;100.00;98810.31;5072918;28;20288;-63
2021/12/11 05:54:30;;;;;;;28.57;19.90;;;;;;;4.45;100.00;98801.09;5079003;28;20195;-62
2021/12/11 05:57:03;;;;;;;31.13;22.17;;;;;;;4.40;100.00;98803.44;5078721;28;20196;-63
2021/12/11 05:59:31;;;;;;;32.30;23.47;;;;;;;4.30;100.00;98797.56;5079312;28;20622;-63
2021/12/11 06:02:01;;;;;;;43.00;28.43;;;;;;;4.30;100.00;98808.09;5078657;28;20191;-63
2021/12/11 06:04:32;;;;;;;37.80;27.73;;;;;;;4.36;100.00;98801.31;5078648;28;20202;-65
2021/12/11 06:07:00;;;;;;;41.70;29.27;;;;;;;4.55;100.00;98799.06;5078390;28;20184;-63
2021/12/11 06:09:28;;;;;;;36.17;26.87;;;;;;;4.72;100.00;98813.75;5079040;28;20251;-63
2021/12/11 06:12:00;;;;;;;37.60;28.17;;;;;;;4.89;100.00;98810.00;5078201;28;20278;-65
2021/12/11 06:14:27;;;;;;;32.97;22.67;;;;;;;4.97;100.00;98788.88;5077766;28;20184;-69
2021/12/11 06:16:56;;;;;;;33.17;23.63;;;;;;;5.15;100.00;98786.72;5077919;28;20191;-69
2021/12/11 06:19:25;;;;;;;32.20;22.23;;;;;;;5.39;100.00;98809.34;5078167;28;20210;-67
2021/12/11 06:21:53;;;;;;;30.17;22.80;;;;;;;5.69;100.00;98787.31;5078604;28;20192;-66
2021/12/11 06:24:21;;;;;;;31.87;22.27;;;;;;;6.01;100.00;98796.69;5078612;28;20203;-68
2021/12/11 06:26:49;;;;;;;28.57;23.97;;;;;;;6.33;100.00;98806.78;5078452;28;20188;-67
2021/12/11 06:29:18;;;;;;;30.80;23.83;;;;;;;6.55;96.67;98795.25;5078550;28;20261;-67
2021/12/11 06:31:45;;;;;;;28.97;22.03;;;;;;;6.69;97.66;98815.50;5078085;28;20191;-65
2021/12/11 06:34:12;;;;;;;26.90;19.93;;;;;;;6.93;95.30;98786.06;5078366;28;20203;-64
2021/12/11 06:36:40;;;;;;;25.07;19.63;;;;;;;7.12;95.56;98814.47;5078912;28;20194;-66
2021/12/11 06:39:11;;;;;;;26.67;20.37;;;;;;;7.39;92.18;98819.78;5078386;28;20618;-65
2021/12/11 06:41:41;;;;;;;26.30;19.67;;;;;;;7.49;91.29;98832.66;5079243;28;20274;-65
2021/12/11 06:44:09;;;;;;;23.33;17.43;;;;;;;7.74;92.91;98808.22;5076100;28;20659;-69
2021/12/11 06:46:38;;;;;;;24.30;20.00;;;;;;;8.01;89.64;98814.47;5075519;28;20223;-66
2021/12/11 06:49:05;;;;;;;19.97;16.17;;;;;;;8.36;97.42;98808.13;5071098;28;20550;-67
2021/12/11 06:51:33;;;;;;;20.43;17.17;;;;;;;9.31;95.89;98805.00;5065932;28;20220;-69
2021/12/11 06:54:03;;;;;;;23.60;17.57;;;;;;;9.51;83.66;98799.69;5069018;28;20187;-70
2021/12/11 06:56:30;;;;;;;22.00;16.73;;;;;;;9.65;81.62;98799.47;5075992;28;20575;-72
2021/12/11 06:58:59;;;;;;;21.73;17.27;;;;;;;9.59;79.25;98805.59;5057608;28;20254;-70
2021/12/11 07:01:27;;;;;;;19.40;15.73;;;;;;;9.66;81.10;98806.41;5061419;28;20269;-71
2021/12/11 07:03:59;;;;;;;18.97;15.57;;;;;;;9.81;79.93;98806.97;5064502;28;20196;-70
2021/12/11 07:06:27;;;;;;;23.47;16.43;;;;;;;10.01;78.09;98804.28;5059586;28;20669;-71
2021/12/11 07:08:54;;;;;;;20.90;17.47;;;;;;;10.03;78.87;98796.94;5072819;28;20184;-71
2021/12/11 07:11:22;;;;;;;18.80;15.50;;;;;;;10.26;77.83;98824.63;5060350;28;20212;-71
2021/12/11 07:13:49;;;;;;;16.93;15.13;;;;;;;10.47;76.19;98820.88;5052393;28;20196;-71
2021/12/11 07:16:16;;;;;;;18.33;15.43;;;;;;;10.53;74.20;98831.47;5052240;28;20219;-72
2021/12/11 07:18:43;;;;;;;17.93;15.77;;;;;;;10.70;74.89;98837.06;5055040;28;20200;-72
2021/12/11 07:21:12;;;;;;;18.83;15.87;;;;;;;10.78;75.27;98834.16;5072644;28;20250;-71
2021/12/11 07:23:45;;;;;;;17.63;15.67;;;;;;;10.70;75.61;98829.09;5061567;28;20254;-71
2021/12/11 07:26:17;;;;;;;23.10;18.13;;;;;;;10.83;76.27;98832.50;5052748;28;20196;-71
2021/12/11 07:28:47;;;;;;;23.60;19.50;;;;;;;10.92;73.72;98803.84;5052983;28;20244;-72
2021/12/11 07:31:14;;;;;;;30.97;21.30;;;;;;;11.11;74.46;98808.19;5053342;28;20267;-72
2021/12/11 07:33:41;;;;;;;24.17;18.87;;;;;;;11.26;73.88;98806.03;5053771;28;20213;-72
2021/12/11 07:36:09;;;;;;;29.40;20.57;;;;;;;11.48;75.25;98814.47;5060301;28;20189;-71
2021/12/11 07:38:37;;;;;;;30.50;22.40;;;;;;;11.54;72.75;98808.25;5073849;28;20656;-72
2021/12/11 07:41:08;;;;;;;22.87;18.43;;;;;;;12.12;83.68;98775.72;5073936;28;20250;-75
2021/12/11 07:43:37;;;;;;;26.90;22.03;;;;;;;12.19;73.32;98800.44;5073868;28;20649;-74
2021/12/11 07:46:06;;;;;;;24.67;19.90;;;;;;;11.92;72.94;98793.78;5073775;28;20288;-75
2021/12/11 07:48:33;;;;;;;24.23;19.97;;;;;;;11.79;73.26;98779.78;5074020;28;20244;-79
2021/12/11 07:51:01;;;;;;;21.07;18.70;;;;;;;11.91;73.59;98800.13;5071010;28;20225;-89
2021/12/11 07:53:27;;;;;;;22.63;17.87;;;;;;;12.01;73.38;98797.75;5073841;28;20207;-87
2021/12/11 07:55:55;;;;;;;18.80;16.57;;;;;;;12.39;71.94;98793.03;5073447;28;20201;-86
2021/12/11 07:58:22;;;;;;;16.00;14.23;;;;;;;13.05;74.83;98761.75;5057633;28;20233;-72
2021/12/11 08:00:50;;;;;;;18.90;15.20;;;;;;;13.87;71.78;98787.41;5061302;28;20207;-73
2021/12/11 08:03:19;;;;;;;21.40;16.70;;;;;;;14.15;67.45;98766.09;5073846;28;20201;-72
2021/12/11 08:05:48;;;;;;;23.23;17.20;;;;;;;14.20;63.54;98798.25;5073688;28;20188;-72
2021/12/11 08:08:15;;;;;;;24.37;17.23;;;;;;;13.81;64.22;98805.16;5073624;28;20188;-73
2021/12/11 08:10:46;;;;;;;18.77;16.77;;;;;;;13.18;65.20;98792.72;5064774;28;20247;-72
2021/12/11 08:13:14;;;;;;;16.97;15.20;;;;;;;12.90;65.81;98793.31;5053333;28;20545;-73
2021/12/11 08:15:42;;;;;;;20.20;15.90;;;;;;;12.91;66.62;98786.16;5052281;28;20266;-71
2021/12/11 08:18:11;;;;;;;18.17;16.00;;;;;;;12.95;67.13;98776.66;5053116;28;20206;-72
2021/12/11 08:20:40;;;;;;;18.63;15.77;;;;;;;12.79;67.87;98767.47;5053179;28;20196;-70
2021/12/11 08:23:08;;;;;;;17.53;15.73;;;;;;;12.61;68.70;98775.50;5053093;28;20201;-71
2021/12/11 08:25:36;;;;;;;21.20;17.67;;;;;;;12.34;70.22;98776.91;5053086;28;20230;-70
2021/12/11 08:28:04;;;;;;;24.30;20.03;;;;;;;12.18;71.46;98774.84;5053197;28;20200;-70
2021/12/11 08:30:35;;;;;;;16.27;14.20;;;;;;;12.06;70.35;98775.81;5053231;28;20219;-71
2021/12/11 08:33:02;;;;;;;14.83;13.33;;;;;;;12.00;70.41;98777.50;5053702;28;20250;-71
2021/12/11 08:35:29;;;;;;;14.83;13.33;;;;;;;11.87;70.02;98751.06;5053167;28;20333;-70
2021/12/11 08:37:57;;;;;;;13.50;12.13;;;;;;;11.66;72.17;98759.47;5053516;28;20194;-70
2021/12/11 08:40:27;;;;;;;18.87;15.70;;;;;;;11.59;72.10;98763.22;5053109;28;20201;-70
2021/12/11 08:42:54;;;;;;;28.60;24.13;;;;;;;11.38;73.25;98751.13;5052647;28;20250;-70
2021/12/11 08:45:26;;;;;;;33.33;29.73;;;;;;;11.03;75.03;98737.53;5058651;28;20294;-69
2021/12/11 08:47:58;;;;;;;23.93;21.43;;;;;;;11.14;75.45;98748.50;5072391;28;20209;-69
2021/12/11 08:50:30;;;;;;;19.80;16.37;;;;;;;10.99;76.39;98736.34;5071983;28;20210;-72
2021/12/11 08:52:57;;;;;;;16.63;13.27;;;;;;;11.01;77.53;98722.84;5072116;28;20729;-70
2021/12/11 08:55:29;;;;;;;15.63;14.03;;;;;;;10.97;77.51;98695.09;5073168;28;20254;-69
2021/12/11 08:57:57;;;;;;;18.27;14.70;;;;;;;11.14;78.66;98706.00;5060172;28;20197;-72
2021/12/11 09:00:28;;;;;;;26.67;22.40;;;;;;;11.02;79.25;98722.63;5052210;28;21262;-70
2021/12/11 09:03:04;;;;;;;18.20;14.53;;;;;;;10.94;79.21;98716.75;5052598;28;20238;-69
2021/12/11 09:05:35;;;;;;;18.67;14.97;;;;;;;10.96;80.19;98710.19;5052732;28;20592;-70
2021/12/11 09:08:10;;;;;;;19.90;14.40;;;;;;;11.09;79.78;98693.34;5052255;28;20240;-70
2021/12/11 09:10:40;;;;;;;19.03;15.83;;;;;;;11.32;79.75;98684.75;5060946;28;20554;-70
2021/12/11 09:13:12;;;;;;;25.03;14.97;;;;;;;11.60;78.02;98691.19;5073117;28;20189;-71
2021/12/11 09:15:43;;;;;;;21.13;13.83;;;;;;;11.75;78.92;98680.16;5072203;28;20649;-72
2021/12/11 09:18:15;;;;;;;19.30;13.77;;;;;;;11.99;76.63;98673.94;5071998;28;20251;-71
2021/12/11 09:20:51;;;;;;;18.77;13.43;;;;;;;12.09;75.86;98668.91;5072918;28;20191;-74
2021/12/11 09:23:24;;;;;;;14.17;11.70;;;;;;;12.24;76.70;98656.81;5072318;28;20201;-71
2021/12/11 09:25:55;;;;;;;12.27;11.00;;;;;;;12.46;74.63;98649.91;5072199;28;20191;-72
2021/12/11 09:28:25;;;;;;;17.50;12.87;;;;;;;12.73;74.79;98639.63;5071562;28;20222;-72
2021/12/11 09:30:56;;;;;;;9.67;8.70;;;;;;;13.02;73.22;98641.44;5071865;28;20264;-75
2021/12/11 09:33:28;;;;;;;11.00;9.93;;;;;;;13.25;72.16;98638.75;5071844;28;20586;-73
2021/12/11 09:35:59;;;;;;;12.33;10.07;;;;;;;13.40;70.95;98631.88;5072817;28;20190;-75
2021/12/11 09:38:29;;;;;;;12.80;9.67;;;;;;;13.56;70.82;98625.81;5072875;28;20241;-77
2021/12/11 09:40:56;;;;;;;17.00;10.20;;;;;;;13.73;70.31;98629.34;5072059;28;20560;-76
2021/12/11 09:43:34;;;;;;;23.13;11.30;;;;;;;13.97;69.43;98630.91;5071856;28;20192;-74
2021/12/11 09:46:01;;;;;;;18.40;12.87;;;;;;;14.10;68.97;98616.47;5072521;28;20226;-73
2021/12/11 09:48:28;;;;;;;15.40;12.30;;;;;;;14.07;69.37;98631.09;5071987;28;20191;-82
2021/12/11 09:51:03;;;;;;;21.53;13.77;;;;;;;13.92;70.63;98625.47;5072314;28;20285;-82
2021/12/11 09:53:34;;;;;;;14.30;9.67;;;;;;;13.82;71.14;98629.81;5071318;28;20187;-78
2021/12/11 09:56:03;;;;;;;13.27;10.10;;;;;;;13.79;71.03;98636.44;5072194;28;20188;-80
2021/12/11 09:58:36;;;;;;;11.03;9.43;;;;;;;13.63;70.74;98610.50;5054666;28;20196;-76
2021/12/11 10:01:06;;;;;;;14.67;12.00;;;;;;;13.64;72.28;98620.13;5051736;28;20572;-74
2021/12/11 10:03:39;;;;;;;16.00;14.50;;;;;;;13.57;73.27;98616.78;5051368;28;20642;-72
2021/12/11 10:06:13;;;;;;;18.97;13.03;;;;;;;13.64;73.73;98606.78;5050509;28;20314;-74
2021/12/11 10:08:46;;;;;;;26.00;16.67;;;;;;;13.80;73.40;98599.88;5067328;28;20659;-74
2021/12/11 10:11:16;;;;;;;26.93;17.10;;;;;;;13.87;72.96;98590.69;5072464;28;20299;-73
2021/12/11 10:13:48;;;;;;;16.23;10.33;;;;;;;13.99;72.96;98594.13;5069878;28;20204;-76
2021/12/11 10:16:19;;;;;;;12.50;9.20;;;;;;;14.04;73.00;98591.53;5069952;28;20237;-75
2021/12/11 10:18:48;;;;;;;15.47;10.73;;;;;;;14.07;73.41;98593.72;5072483;28;20184;-73
2021/12/11 10:21:18;;;;;;;11.23;8.53;;;;;;;14.22;72.65;98588.66;5071873;28;20192;-73
2021/12/11 10:23:48;;;;;;;9.37;8.57;;;;;;;14.31;72.47;98587.25;5071469;28;20620;-74
2021/12/11 10:26:16;;;;;;;8.97;8.07;;;;;;;14.25;73.33;98585.50;5072644;28;20246;-72
2021/12/11 10:28:48;;;;;;;12.60;7.10;;;;;;;14.26;74.25;98563.09;5071358;28;20250;-72
2021/12/11 10:31:18;;;;;;;13.97;8.13;;;;;;;14.37;74.16;98558.72;5071416;28;20264;-71
2021/12/11 10:33:45;;;;;;;8.47;7.43;;;;;;;14.26;74.90;98568.44;5071363;28;20191;-72
2021/12/11 10:36:15;;;;;;;10.27;7.30;;;;;;;14.17;75.86;98569.06;5071352;28;20713;-72
2021/12/11 10:38:43;;;;;;;10.97;6.77;;;;;;;14.12;75.76;98569.78;5071200;28;20196;-72
2021/12/11 10:41:12;;;;;;;9.13;6.90;;;;;;;14.14;75.33;98554.31;5074995;28;20203;-72
2021/12/11 10:43:53;;;;;;;7.20;6.50;;;;;;;14.19;75.26;98575.78;5075241;28;20192;-72
2021/12/11 10:46:26;;;;;;;13.33;8.97;;;;;;;14.13;77.02;98568.72;5075498;28;20219;-73
2021/12/11 10:48:53;;;;;;;11.43;7.23;;;;;;;13.96;77.91;98567.88;5075460;28;20188;-72
2021/12/11 10:51:23;;;;;;;12.07;7.10;;;;;;;13.88;77.81;98559.47;5075009;28;20277;-72
2021/12/11 10:53:51;;;;;;;8.57;7.17;;;;;;;13.92;77.61;98542.72;5075289;28;20187;-72
2021/12/11 10:56:21;;;;;;;15.70;9.07;;;;;;;13.99;78.12;98538.03;5074831;28;20197;-68
2021/12/11 10:58:51;;;;;;;19.83;11.03;;;;;;;13.96;77.98;98533.19;5054753;28;20258;-69
2021/12/11 11:01:24;;;;;;;12.30;9.17;;;;;;;13.94;78.60;98529.13;5055598;28;20189;-68
2021/12/11 11:03:57;;;;;;;11.37;7.87;;;;;;;13.97;78.84;98521.44;5054537;28;20198;-67
2021/12/11 11:06:24;;;;;;;13.97;8.07;;;;;;;13.86;79.65;98503.66;5054748;28;20246;-65
2021/12/11 11:08:53;;;;;;;14.10;9.37;;;;;;;13.88;79.51;98501.53;5054918;28;20254;-63
2021/12/11 11:11:23;;;;;;;14.10;8.10;;;;;;;13.99;79.75;98497.16;5067704;28;20591;-64
2021/12/11 11:13:50;;;;;;;14.37;10.30;;;;;;;14.02;79.29;98491.34;5073950;28;20640;-70
2021/12/11 11:16:19;;;;;;;12.40;9.93;;;;;;;14.06;79.55;98492.50;5062228;28;20225;-65
2021/12/11 11:18:49;;;;;;;13.93;8.90;;;;;;;14.04;79.43;98479.38;5068581;28;20247;-65
2021/12/11 11:21:19;;;;;;;13.00;8.17;;;;;;;14.17;78.92;98484.38;5054156;28;20196;-65
2021/12/11 11:23:47;;;;;;;10.27;7.80;;;;;;;14.18;79.47;98475.31;5065977;28;20656;-66
2021/12/11 11:26:19;;;;;;;23.37;9.87;;;;;;;14.20;79.75;98477.75;5074347;28;20195;-68
2021/12/11 11:28:45;;;;;;;15.43;8.60;;;;;;;14.29;79.83;98487.03;5084978;28;20191;-67
2021/12/11 11:31:18;;;;;;;10.20;7.40;;;;;;;14.21;80.95;98468.75;5091047;28;20281;-67
2021/12/11 11:33:45;;;;;;;10.50;8.20;;;;;;;14.23;81.64;98464.78;5074238;28;20233;-66
2021/12/11 11:36:17;;;;;;;12.17;8.17;;;;;;;14.26;82.11;98453.56;5072035;28;20195;-67